createdAt,value
2019-01-09T00:00:34.631Z,1.39
2019-01-09T00:03:01.997Z,1.30
2019-01-09T00:05:29.545Z,1.41
2019-01-09T00:07:56.964Z,1.36
2019-01-09T00:10:24.334Z,1.39
2019-01-09T00:12:51.676Z,1.38
2019-01-09T00:15:19.082Z,1.44
2019-01-09T00:17:46.553Z,1.37
2019-01-09T00:20:14.026Z,1.42
2019-01-09T00:22:41.451Z,1.33
2019-01-09T00:25:08.971Z,1.30
2019-01-09T00:27:36.449Z,1.31
2019-01-09T00:30:04.292Z,1.22
2019-01-09T00:32:31.704Z,1.22
2019-01-09T00:34:59.168Z,1.11
2019-01-09T00:37:26.578Z,1.14
2019-01-09T00:39:53.982Z,1.15
2019-01-09T00:42:21.521Z,1.08
2019-01-09T00:44:49.238Z,1.14
2019-01-09T00:47:16.714Z,1.19
2019-01-09T00:49:44.166Z,1.22
2019-01-09T00:52:11.572Z,1.23
2019-01-09T00:54:38.902Z,1.22
2019-01-09T00:57:06.895Z,1.22
2019-01-09T00:59:34.606Z,1.21
2019-01-09T01:02:12.516Z,1.18
2019-01-09T01:04:47.403Z,1.12
2019-01-09T01:07:38.171Z,1.14
2019-01-09T01:10:43.192Z,1.11
2019-01-09T01:13:42.294Z,1.18
2019-01-09T01:16:28.041Z,1.15
2019-01-09T01:19:21.048Z,1.18
2019-01-09T01:21:51.545Z,1.12
2019-01-09T01:24:25.331Z,1.09
2019-01-09T01:27:04.561Z,1.09
2019-01-09T01:29:50.171Z,1.13
2019-01-09T01:32:40.286Z,1.06
2019-01-09T01:35:27.632Z,1.10
2019-01-09T01:38:29.908Z,1.07
2019-01-09T01:41:05.995Z,1.00
2019-01-09T01:44:01.920Z,1.07
2019-01-09T01:46:47.632Z,1.09
2019-01-09T01:49:20.558Z,1.01
2019-01-09T01:52:03.806Z,0.98
2019-01-09T01:54:40.050Z,1.01
2019-01-09T02:09:56.051Z,0.89
2019-01-09T02:13:01.290Z,0.85
2019-01-09T02:15:53.146Z,0.78
2019-01-09T02:18:22.938Z,0.81
2019-01-09T02:21:11.750Z,0.82
2019-01-09T02:23:57.510Z,0.83
2019-01-09T02:26:47.462Z,0.80
2019-01-09T02:29:34.350Z,0.76
2019-01-09T02:32:09.102Z,0.73
2019-01-09T02:34:36.451Z,0.79
2019-01-09T02:37:03.888Z,0.72
2019-01-09T02:39:31.267Z,0.77
2019-01-09T02:41:58.611Z,0.73
2019-01-09T02:44:32.163Z,0.73
2019-01-09T02:46:55.571Z,0.79
2019-01-09T02:49:23.017Z,0.89
2019-01-09T02:51:50.732Z,0.83
2019-01-09T02:54:18.210Z,0.85
2019-01-09T02:56:45.586Z,0.85
2019-01-09T02:59:12.972Z,0.72
2019-01-09T03:01:40.326Z,0.75
2019-01-09T03:04:07.724Z,0.82
2019-01-09T03:06:35.174Z,0.79
2019-01-09T03:09:03.364Z,0.78
2019-01-09T03:11:30.790Z,0.85
2019-01-09T03:13:58.144Z,0.78
2019-01-09T03:16:25.512Z,0.72
2019-01-09T03:18:52.884Z,0.75
2019-01-09T03:21:22.388Z,0.78
2019-01-09T03:23:49.499Z,0.78
2019-01-09T03:26:16.914Z,0.85
2019-01-09T03:28:44.295Z,0.78
2019-01-09T03:31:11.696Z,0.80
2019-01-09T03:33:39.403Z,0.74
2019-01-09T03:36:06.746Z,0.82
2019-01-09T03:38:34.095Z,0.76
2019-01-09T03:41:01.468Z,0.77
2019-01-09T03:43:28.854Z,0.92
2019-01-09T03:45:56.893Z,0.76
2019-01-09T03:48:24.248Z,0.79
2019-01-09T03:50:51.643Z,0.71
2019-01-09T03:53:19.002Z,0.74
2019-01-09T03:55:46.611Z,0.81
2019-01-09T03:58:13.993Z,0.85
2019-01-09T04:00:41.346Z,0.82
2019-01-09T04:03:08.723Z,0.73
2019-01-09T04:05:36.095Z,0.78
2019-01-09T04:08:03.486Z,0.75
2019-01-09T04:10:30.842Z,0.75
2019-01-09T04:12:58.515Z,0.79
2019-01-09T04:15:25.897Z,0.80
2019-01-09T04:17:53.256Z,0.81
2019-01-09T04:20:20.643Z,0.88
2019-01-09T04:22:47.998Z,0.85
2019-01-09T04:25:18.316Z,0.82
2019-01-09T04:27:45.710Z,0.80
2019-01-09T04:30:13.055Z,0.73
2019-01-09T04:32:40.469Z,0.73
2019-01-09T04:35:07.998Z,0.80
2019-01-09T04:37:35.360Z,0.81
2019-01-09T04:40:03.239Z,0.83
2019-01-09T04:42:30.627Z,0.78
2019-01-09T04:44:58.066Z,0.79
2019-01-09T04:47:25.473Z,0.73
2019-01-09T04:49:52.826Z,0.76
2019-01-09T04:52:20.245Z,0.70
2019-01-09T04:54:47.587Z,0.63
2019-01-09T04:57:14.967Z,0.63
2019-01-09T04:59:42.357Z,0.70
2019-01-09T05:02:09.697Z,0.68
2019-01-09T05:04:37.078Z,0.62
2019-01-09T05:07:04.429Z,0.74
2019-01-09T05:09:31.769Z,0.63
2019-01-09T05:11:59.423Z,0.68
2019-01-09T05:14:26.771Z,0.64
2019-01-09T05:16:54.209Z,0.61
2019-01-09T05:19:21.679Z,0.53
2019-01-09T05:21:49.186Z,0.60
2019-01-09T05:24:16.648Z,0.59
2019-01-09T05:26:43.994Z,0.56
2019-01-09T05:29:11.379Z,0.59
2019-01-09T05:31:38.741Z,0.62
2019-01-09T05:34:06.119Z,0.56
2019-01-09T05:36:33.633Z,0.55
2019-01-09T05:39:01.011Z,0.58
2019-01-09T05:41:28.394Z,0.62
2019-01-09T05:43:55.824Z,0.56
2019-01-09T05:46:23.268Z,0.62
2019-01-09T05:48:50.642Z,0.53
2019-01-09T05:51:18.055Z,0.52
2019-01-09T05:53:45.502Z,0.50
2019-01-09T05:56:12.868Z,0.54
2019-01-09T05:58:40.222Z,0.52
2019-01-09T06:01:07.611Z,0.50
2019-01-09T06:03:34.954Z,0.55
2019-01-09T06:06:02.563Z,0.60
2019-01-09T06:08:29.951Z,0.66
2019-01-09T06:10:57.308Z,0.60
2019-01-09T06:13:24.866Z,0.51
2019-01-09T06:15:52.274Z,0.52
2019-01-09T06:18:19.647Z,0.47
2019-01-09T06:20:47.310Z,0.50
2019-01-09T06:23:14.665Z,0.54
2019-01-09T06:25:42.102Z,0.57
2019-01-09T06:28:10.256Z,0.47
2019-01-09T06:30:37.587Z,0.45
2019-01-09T06:33:05.001Z,0.51
2019-01-09T06:35:32.689Z,0.55
2019-01-09T06:38:00.128Z,0.49
2019-01-09T06:40:27.482Z,0.56
2019-01-09T06:42:55.128Z,0.54
2019-01-09T06:45:22.484Z,0.51
2019-01-09T06:47:49.932Z,0.55
2019-01-09T06:50:18.131Z,0.56
2019-01-09T06:52:45.483Z,0.44
2019-01-09T06:55:13.161Z,0.37
2019-01-09T06:57:40.779Z,0.38
2019-01-09T07:00:08.410Z,0.34
2019-01-09T07:02:36.214Z,0.43
2019-01-09T07:05:03.736Z,0.43
2019-01-09T07:07:35.974Z,0.52
2019-01-09T07:10:01.589Z,0.52
2019-01-09T07:12:29.142Z,0.41
2019-01-09T07:14:56.499Z,0.45
2019-01-09T07:17:23.918Z,0.43
2019-01-09T07:19:51.252Z,0.39
2019-01-09T07:22:18.646Z,0.38
2019-01-09T07:24:46.045Z,0.38
2019-01-09T07:27:13.429Z,0.45
2019-01-09T07:29:41.231Z,0.43
2019-01-09T07:32:08.678Z,0.45
2019-01-09T07:34:36.043Z,0.48
2019-01-09T07:37:03.697Z,0.51
2019-01-09T07:39:31.036Z,0.52
2019-01-09T07:41:58.387Z,0.50
2019-01-09T07:44:25.834Z,0.55
2019-01-09T07:46:53.174Z,0.62
2019-01-09T07:49:20.556Z,0.55
2019-01-09T07:51:48.014Z,0.62
2019-01-09T07:54:15.367Z,0.49
2019-01-09T07:56:42.712Z,0.48
2019-01-09T07:59:10.377Z,0.53
2019-01-09T08:01:37.759Z,0.51
2019-01-09T08:04:05.095Z,0.57
2019-01-09T08:06:32.751Z,0.56
2019-01-09T08:09:00.118Z,0.52
2019-01-09T08:11:27.493Z,0.54
2019-01-09T08:13:54.959Z,0.61
2019-01-09T08:16:22.296Z,0.66
2019-01-09T08:18:49.679Z,0.69
2019-01-09T08:21:17.027Z,0.77
2019-01-09T08:23:44.386Z,0.72
2019-01-09T08:26:11.774Z,0.78
2019-01-09T08:28:39.118Z,0.77
2019-01-09T08:31:06.622Z,0.83
2019-01-09T08:33:34.376Z,0.79
2019-01-09T08:36:01.753Z,0.82
2019-01-09T08:38:29.203Z,0.85
2019-01-09T08:40:56.838Z,0.68
2019-01-09T08:43:24.187Z,0.57
2019-01-09T08:45:51.542Z,0.52
2019-01-09T08:48:19.409Z,0.59
2019-01-09T08:50:46.893Z,0.49
2019-01-09T08:53:14.268Z,0.60
2019-01-09T08:55:41.642Z,0.65
2019-01-09T08:58:09.078Z,0.66
2019-01-09T09:00:36.432Z,0.78
2019-01-09T09:03:03.821Z,0.69
2019-01-09T09:05:31.194Z,0.79
2019-01-09T09:07:59.878Z,0.76
2019-01-09T09:10:27.225Z,0.82
2019-01-09T09:12:54.611Z,0.79
2019-01-09T09:15:22.008Z,0.79
2019-01-09T09:17:49.361Z,0.83
2019-01-09T09:20:16.742Z,0.90
2019-01-09T09:22:44.092Z,1.13
2019-01-09T09:25:12.071Z,1.11
2019-01-09T09:27:39.474Z,1.04
2019-01-09T09:30:07.706Z,0.89
2019-01-09T09:32:35.082Z,0.90
2019-01-09T09:35:02.515Z,0.73
2019-01-09T09:37:29.911Z,0.78
2019-01-09T09:39:57.286Z,0.69
2019-01-09T09:42:24.666Z,0.61
2019-01-09T09:44:52.099Z,0.57
2019-01-09T09:47:19.563Z,0.56
2019-01-09T09:49:46.966Z,0.57
2019-01-09T09:52:14.425Z,0.56
2019-01-09T09:54:41.888Z,0.64
2019-01-09T09:57:09.247Z,0.44
2019-01-09T09:59:36.666Z,0.38
2019-01-09T10:02:04.084Z,0.59
2019-01-09T10:04:31.455Z,0.52
2019-01-09T10:06:58.854Z,0.53
2019-01-09T10:09:26.258Z,0.43
2019-01-09T10:11:53.702Z,0.41
2019-01-09T10:14:21.122Z,0.44
2019-01-09T10:16:48.561Z,0.39
2019-01-09T10:19:16.023Z,0.19
2019-01-09T10:21:43.392Z,0.29
2019-01-09T10:24:10.813Z,0.33
2019-01-09T10:26:38.299Z,0.41
2019-01-09T10:29:05.776Z,0.53
2019-01-09T10:31:33.127Z,0.54
2019-01-09T10:34:00.558Z,0.61
2019-01-09T10:36:28.116Z,0.67
2019-01-09T10:38:55.461Z,0.69
2019-01-09T10:41:22.818Z,0.85
2019-01-09T10:43:50.218Z,0.95
2019-01-09T10:46:17.693Z,0.96
2019-01-09T10:48:45.310Z,1.63
2019-01-09T10:51:12.854Z,2.92
2019-01-09T10:53:40.287Z,3.42
2019-01-09T10:56:07.962Z,3.73
2019-01-09T10:58:35.384Z,3.26
2019-01-09T11:01:02.976Z,2.87
2019-01-09T11:03:30.370Z,2.12
2019-01-09T11:05:57.710Z,1.93
2019-01-09T11:08:25.098Z,1.47
2019-01-09T11:10:52.445Z,1.26
2019-01-09T11:13:19.853Z,1.24
2019-01-09T11:15:47.335Z,1.28
2019-01-09T11:18:14.692Z,1.33
2019-01-09T11:20:42.037Z,1.33
2019-01-09T11:23:09.412Z,1.40
2019-01-09T11:25:36.776Z,1.45
2019-01-09T11:28:04.368Z,1.44
2019-01-09T11:30:31.715Z,1.45
2019-01-09T11:32:59.077Z,1.51
2019-01-09T11:35:26.894Z,1.44
2019-01-09T11:37:54.278Z,1.33
2019-01-09T11:40:21.793Z,1.33
2019-01-09T11:42:49.255Z,1.31
2019-01-09T11:45:16.922Z,1.44
2019-01-09T11:47:44.407Z,1.65
2019-01-09T11:50:12.355Z,1.75
2019-01-09T11:52:39.886Z,1.61
2019-01-09T11:55:08.262Z,1.53
2019-01-09T11:57:35.690Z,1.57
2019-01-09T12:00:05.092Z,1.48
2019-01-09T12:02:32.517Z,1.34
2019-01-09T12:04:59.970Z,1.38
2019-01-09T12:07:27.499Z,1.34
2019-01-09T12:09:54.885Z,1.30
2019-01-09T12:12:22.276Z,1.31
2019-01-09T12:14:49.692Z,1.13
2019-01-09T12:17:17.203Z,1.06
2019-01-09T12:19:44.573Z,0.88
2019-01-09T12:22:12.043Z,0.63
2019-01-09T12:24:39.398Z,0.60
2019-01-09T12:27:06.950Z,0.63
2019-01-09T12:29:34.351Z,0.60
2019-01-09T12:32:01.723Z,0.57
2019-01-09T12:34:29.154Z,0.56
2019-01-09T12:36:56.645Z,0.55
2019-01-09T12:39:24.003Z,0.56
2019-01-09T12:41:51.422Z,0.73
2019-01-09T12:44:18.774Z,0.80
2019-01-09T12:46:46.146Z,0.83
2019-01-09T12:49:15.318Z,0.86
2019-01-09T12:51:42.701Z,0.83
2019-01-09T12:54:10.078Z,0.87
2019-01-09T12:56:37.551Z,0.95
2019-01-09T12:59:04.950Z,0.80
2019-01-09T13:01:32.319Z,0.67
2019-01-09T13:03:59.742Z,0.65
2019-01-09T13:06:27.091Z,0.62
2019-01-09T13:08:54.775Z,0.57
2019-01-09T13:11:22.286Z,0.65
2019-01-09T13:13:49.647Z,0.66
2019-01-09T13:16:17.035Z,0.64
2019-01-09T13:18:44.794Z,0.72
2019-01-09T13:21:12.134Z,0.61
2019-01-09T13:23:39.499Z,0.59
2019-01-09T13:26:06.894Z,0.56
2019-01-09T13:28:34.239Z,0.60
2019-01-09T13:31:01.645Z,0.54
2019-01-09T13:33:29.026Z,0.57
2019-01-09T13:35:56.470Z,0.62
2019-01-09T13:38:23.898Z,0.53
2019-01-09T13:40:51.285Z,0.47
2019-01-09T13:43:18.630Z,0.43
2019-01-09T13:45:46.023Z,0.63
2019-01-09T13:48:13.433Z,0.45
2019-01-09T13:50:40.919Z,0.42
2019-01-09T13:53:08.300Z,0.37
2019-01-09T13:55:35.669Z,0.28
2019-01-09T13:58:03.346Z,0.24
2019-01-09T14:00:31.193Z,0.00
2019-01-09T14:02:58.636Z,-0.11
2019-01-09T14:05:25.991Z,-0.08
2019-01-09T14:07:53.375Z,-0.10
2019-01-09T14:10:22.281Z,-0.08
2019-01-09T14:12:49.718Z,0.02
2019-01-09T14:15:17.840Z,-0.11
2019-01-09T14:17:45.698Z,-0.15
2019-01-09T14:20:13.161Z,-0.09
2019-01-09T14:22:40.654Z,-0.12
2019-01-09T14:25:08.526Z,-0.26
2019-01-09T14:27:36.022Z,-0.19
2019-01-09T14:30:04.801Z,-0.11
2019-01-09T14:32:32.158Z,0.05
2019-01-09T14:34:59.966Z,-0.07
2019-01-09T14:37:27.442Z,-0.10
2019-01-09T14:39:54.800Z,-0.15
2019-01-09T14:42:22.162Z,-0.11
2019-01-09T14:44:49.549Z,-0.10
2019-01-09T14:47:16.902Z,-0.08
2019-01-09T14:49:44.290Z,0.00
2019-01-09T14:52:12.043Z,-0.05
2019-01-09T14:54:39.404Z,-0.11
2019-01-09T14:57:06.742Z,-0.28
2019-01-09T14:59:34.435Z,-0.47
2019-01-09T15:02:01.866Z,-0.73
2019-01-09T15:04:29.227Z,-0.99
2019-01-09T15:06:56.694Z,-1.16
2019-01-09T15:09:24.101Z,-1.24
2019-01-09T15:11:51.499Z,-1.28
2019-01-09T15:14:18.915Z,-1.34
2019-01-09T15:16:46.397Z,-1.40
2019-01-09T15:19:14.312Z,-1.40
2019-01-09T15:21:41.775Z,-1.38
2019-01-09T15:24:09.151Z,-1.35
2019-01-09T15:26:36.643Z,-1.43
2019-01-09T15:29:04.072Z,-1.47
2019-01-09T15:31:31.558Z,-1.45
2019-01-09T15:33:59.071Z,-1.42
2019-01-09T15:36:26.604Z,-1.40
2019-01-09T15:38:54.149Z,-1.37
2019-01-09T15:41:21.743Z,-1.31
2019-01-09T15:43:49.235Z,-1.31
2019-01-09T15:46:16.754Z,-1.27
2019-01-09T15:48:44.171Z,-1.33
2019-01-09T15:51:11.621Z,-1.15
2019-01-09T15:53:39.035Z,-1.15
2019-01-09T15:56:06.481Z,-1.15
2019-01-09T15:58:33.940Z,-1.11
2019-01-09T16:01:01.320Z,-1.11
2019-01-09T16:03:28.772Z,-1.15
2019-01-09T16:05:56.265Z,-1.15
2019-01-09T16:08:23.670Z,-1.13
2019-01-09T16:10:51.936Z,-1.15
2019-01-09T16:13:19.372Z,-1.20
2019-01-09T16:15:46.842Z,-1.14
2019-01-09T16:18:14.234Z,-1.13
2019-01-09T16:20:41.692Z,-0.94
2019-01-09T16:23:09.096Z,-0.91
2019-01-09T16:25:36.519Z,-1.02
2019-01-09T16:28:06.312Z,-1.03
2019-01-09T16:30:58.554Z,-1.12
2019-01-09T16:33:26.046Z,-1.12
2019-01-09T16:35:53.471Z,-1.14
2019-01-09T16:38:20.961Z,-1.17
2019-01-09T16:40:48.464Z,-1.13
2019-01-09T16:43:15.945Z,-1.09
2019-01-09T16:45:43.469Z,-1.00
2019-01-09T16:48:11.027Z,-1.14
2019-01-09T16:50:38.550Z,-1.15
2019-01-09T16:53:06.023Z,-1.09
2019-01-09T16:55:33.531Z,-1.13
2019-01-09T16:58:00.966Z,-1.22
2019-01-09T17:00:28.984Z,-1.17
2019-01-09T17:02:56.499Z,-1.21
2019-01-09T17:05:23.978Z,-1.18
2019-01-09T17:07:52.108Z,-1.25
2019-01-09T17:10:19.560Z,-1.20
2019-01-09T17:12:47.075Z,-1.22
2019-01-09T17:15:15.719Z,-1.18
2019-01-09T17:17:43.241Z,-1.20
2019-01-09T17:20:12.114Z,-1.29
2019-01-09T17:22:39.515Z,-1.26
2019-01-09T17:25:07.469Z,-1.34
2019-01-09T17:27:35.170Z,-1.33
2019-01-09T17:30:04.091Z,-1.47
2019-01-09T17:32:31.603Z,-1.45
2019-01-09T17:34:59.559Z,-1.41
2019-01-09T17:37:26.998Z,-1.43
2019-01-09T17:39:54.417Z,-1.42
2019-01-09T17:42:21.921Z,-1.29
2019-01-09T17:44:49.703Z,-1.33
2019-01-09T17:47:17.487Z,-1.31
2019-01-09T17:49:44.976Z,-1.28
2019-01-09T17:52:12.503Z,-1.33
2019-01-09T17:54:40.006Z,-1.32
2019-01-09T17:57:07.435Z,-1.23
2019-01-09T17:59:34.942Z,-1.22
2019-01-09T18:02:02.481Z,-1.23
2019-01-09T18:04:29.956Z,-1.27
2019-01-09T18:06:57.459Z,-1.29
2019-01-09T18:09:24.834Z,-1.35
2019-01-09T18:11:52.346Z,-1.36
2019-01-09T18:14:19.777Z,-1.35
2019-01-09T18:16:47.173Z,-1.35
2019-01-09T18:19:14.586Z,-1.40
2019-01-09T18:21:42.194Z,-1.36
2019-01-09T18:24:09.691Z,-1.26
2019-01-09T18:26:37.451Z,-1.31
2019-01-09T18:29:05.213Z,-1.20
2019-01-09T18:32:07.203Z,-1.19
2019-01-09T18:34:57.153Z,-1.29
2019-01-09T18:37:47.035Z,-1.31
2019-01-09T18:40:42.830Z,-1.34
2019-01-09T18:43:32.804Z,-1.34
2019-01-09T18:46:10.415Z,-1.30
2019-01-09T18:49:00.211Z,-1.32
2019-01-09T18:51:41.545Z,-1.33
2019-01-09T18:54:09.058Z,-1.25
2019-01-09T18:56:36.536Z,-1.22
2019-01-09T18:59:04.129Z,-1.36
2019-01-09T19:01:31.519Z,-1.34
2019-01-09T19:03:59.095Z,-1.34
2019-01-09T19:06:34.827Z,-1.27
2019-01-09T19:08:55.866Z,-1.16
2019-01-09T19:11:23.387Z,-1.22
2019-01-09T19:13:51.154Z,-1.26
2019-01-09T19:16:18.800Z,-1.23
2019-01-09T19:18:46.262Z,-1.24
2019-01-09T19:21:13.644Z,-1.16
2019-01-09T19:23:41.507Z,-1.15
2019-01-09T19:26:09.090Z,-1.12
2019-01-09T19:28:36.514Z,-1.15
2019-01-09T19:31:04.233Z,-1.16
2019-01-09T19:33:31.742Z,-1.16
2019-01-09T19:35:59.325Z,-1.00
2019-01-09T19:38:26.862Z,-1.11
2019-01-09T19:40:54.372Z,-1.02
2019-01-09T19:43:21.844Z,-1.03
2019-01-09T19:45:49.260Z,-0.96
2019-01-09T19:48:16.767Z,-1.02
2019-01-09T19:50:44.158Z,-1.01
2019-01-09T19:53:11.620Z,-1.10
2019-01-09T19:55:39.039Z,-1.10
2019-01-09T19:58:06.613Z,-1.14
2019-01-09T20:00:34.196Z,-1.18
2019-01-09T20:03:03.191Z,-1.19
2019-01-09T20:05:30.692Z,-1.23
2019-01-09T20:07:58.110Z,-1.28
2019-01-09T20:10:26.219Z,-1.26
2019-01-09T20:12:53.689Z,-1.31
2019-01-09T20:15:21.386Z,-1.37
2019-01-09T20:17:48.817Z,-1.40
2019-01-09T20:20:16.732Z,-1.45
2019-01-09T20:22:44.319Z,-1.38
2019-01-09T20:25:12.458Z,-1.43
2019-01-09T20:27:39.874Z,-1.49
2019-01-09T20:30:09.614Z,-1.44
2019-01-09T20:32:37.020Z,-1.48
2019-01-09T20:35:04.547Z,-1.46
2019-01-09T20:37:31.914Z,-1.51
2019-01-09T20:39:59.555Z,-1.55
2019-01-09T20:42:27.019Z,-1.49
2019-01-09T20:44:54.418Z,-1.49
2019-01-09T20:47:21.903Z,-1.49
2019-01-09T20:49:49.555Z,-1.47
2019-01-09T20:52:17.018Z,-1.41
2019-01-09T20:54:44.487Z,-1.47
2019-01-09T20:57:12.331Z,-1.50
2019-01-09T20:59:39.789Z,-1.46
2019-01-09T21:02:07.299Z,-1.53
2019-01-09T21:04:34.740Z,-1.50
2019-01-09T21:07:02.653Z,-1.46
2019-01-09T21:09:30.214Z,-1.47
2019-01-09T21:11:57.612Z,-1.40
2019-01-09T21:14:25.034Z,-1.35
2019-01-09T21:16:52.613Z,-1.46
2019-01-09T21:19:20.244Z,-1.31
2019-01-09T21:21:48.905Z,-1.27
2019-01-09T21:24:16.427Z,-1.38
2019-01-09T21:26:43.859Z,-1.47
2019-01-09T21:29:11.296Z,-1.48
2019-01-09T21:31:38.790Z,-1.45
2019-01-09T21:34:06.215Z,-1.43
2019-01-09T21:36:33.698Z,-1.50
2019-01-09T21:39:01.172Z,-1.54
2019-01-09T21:41:28.527Z,-1.51
2019-01-09T21:43:55.930Z,-1.50
2019-01-09T21:46:23.345Z,-1.49
2019-01-09T21:48:50.785Z,-1.52
2019-01-09T21:51:18.298Z,-1.49
2019-01-09T21:53:45.790Z,-1.60
2019-01-09T21:56:13.238Z,-1.48
2019-01-09T21:58:41.036Z,-1.56
2019-01-09T22:01:08.407Z,-1.55
2019-01-09T22:03:35.763Z,-1.57
2019-01-09T22:06:03.584Z,-1.53
2019-01-09T22:08:30.953Z,-1.52
2019-01-09T22:10:58.383Z,-1.49
2019-01-09T22:13:25.775Z,-1.41
2019-01-09T22:15:53.121Z,-1.45
2019-01-09T22:18:20.506Z,-1.37
2019-01-09T22:20:48.119Z,-1.35
2019-01-09T22:23:15.490Z,-1.33
2019-01-09T22:25:43.068Z,-1.42
2019-01-09T22:28:10.531Z,-1.41
2019-01-09T22:30:37.912Z,-1.31
2019-01-09T22:33:05.358Z,-1.40
2019-01-09T22:35:41.080Z,-1.42
2019-01-09T22:38:02.032Z,-1.53
2019-01-09T22:40:29.390Z,-1.35
2019-01-09T22:42:57.299Z,-1.33
2019-01-09T22:45:24.664Z,-1.41
2019-01-09T22:47:52.062Z,-1.43
2019-01-09T22:50:20.399Z,-1.36
2019-01-09T22:52:47.739Z,-1.33
2019-01-09T22:55:15.174Z,-1.29
2019-01-09T22:57:42.735Z,-1.42
2019-01-09T23:00:20.831Z,-1.42
2019-01-09T23:02:48.219Z,-1.40
2019-01-09T23:05:15.603Z,-1.48
2019-01-09T23:07:42.984Z,-1.35
2019-01-09T23:10:10.451Z,-1.38
2019-01-09T23:12:37.824Z,-1.45
2019-01-09T23:15:05.276Z,-1.51
2019-01-09T23:17:32.751Z,-1.50
2019-01-09T23:20:00.207Z,-1.46
2019-01-09T23:22:27.646Z,-1.51
2019-01-09T23:24:55.129Z,-1.49
2019-01-09T23:27:22.664Z,-1.49
2019-01-09T23:29:50.166Z,-1.42
2019-01-09T23:32:17.864Z,-1.40
2019-01-09T23:34:45.349Z,-1.41
2019-01-09T23:37:12.739Z,-1.30
2019-01-09T23:39:40.143Z,-1.33
2019-01-09T23:42:07.538Z,-1.26
2019-01-09T23:44:34.909Z,-1.32
2019-01-09T23:47:02.293Z,-1.33
2019-01-09T23:49:29.714Z,-1.33
2019-01-09T23:51:57.086Z,-1.36
2019-01-09T23:54:24.434Z,-1.44
2019-01-09T23:56:51.854Z,-1.39
2019-01-09T23:59:19.218Z,-1.51
